sensor_id;sensor_type;location;lat;lon;timestamp;P1;durP1;ratioP1;P2;durP2;ratioP2
49103;SDS011;34915;52.926;11.116;2022-07-22T00:07:10;4.50;;;4.07;;
49103;SDS011;34915;52.926;11.116;2022-07-22T00:09:35;8.70;;;4.57;;
49103;SDS011;34915;52.926;11.116;2022-07-22T00:12:01;4.20;;;3.87;;
49103;SDS011;34915;52.926;11.116;2022-07-22T00:14:26;4.80;;;4.40;;
49103;SDS011;34915;52.926;11.116;2022-07-22T00:16:52;6.20;;;4.30;;
49103;SDS011;34915;52.926;11.116;2022-07-22T00:19:17;4.67;;;4.27;;
49103;SDS011;34915;52.926;11.116;2022-07-22T00:21:43;4.90;;;4.40;;
49103;SDS011;34915;52.926;11.116;2022-07-22T00:24:09;4.50;;;4.10;;
49103;SDS011;34915;52.926;11.116;2022-07-22T00:26:34;4.70;;;4.30;;
49103;SDS011;34915;52.926;11.116;2022-07-22T00:29:00;4.30;;;4.00;;
49103;SDS011;34915;52.926;11.116;2022-07-22T00:31:28;4.80;;;4.40;;
49103;SDS011;34915;52.926;11.116;2022-07-22T00:33:56;4.33;;;3.80;;
49103;SDS011;34915;52.926;11.116;2022-07-22T00:36:21;4.77;;;4.20;;
49103;SDS011;34915;52.926;11.116;2022-07-22T00:38:47;5.33;;;3.50;;
49103;SDS011;34915;52.926;11.116;2022-07-22T00:41:12;4.60;;;4.20;;
49103;SDS011;34915;52.926;11.116;2022-07-22T00:46:39;4.00;;;3.70;;
49103;SDS011;34915;52.926;11.116;2022-07-22T00:49:06;4.03;;;3.70;;
49103;SDS011;34915;52.926;11.116;2022-07-22T00:51:32;5.40;;;4.17;;
49103;SDS011;34915;52.926;11.116;2022-07-22T00:53:59;3.90;;;3.60;;
49103;SDS011;34915;52.926;11.116;2022-07-22T00:56:26;4.43;;;4.03;;
49103;SDS011;34915;52.926;11.116;2022-07-22T00:58:54;5.80;;;4.50;;
49103;SDS011;34915;52.926;11.116;2022-07-22T01:01:21;4.70;;;4.30;;
49103;SDS011;34915;52.926;11.116;2022-07-22T01:03:47;4.87;;;4.37;;
49103;SDS011;34915;52.926;11.116;2022-07-22T01:06:12;5.47;;;4.03;;
49103;SDS011;34915;52.926;11.116;2022-07-22T01:08:38;4.80;;;4.07;;
49103;SDS011;34915;52.926;11.116;2022-07-22T01:11:11;5.23;;;4.10;;
49103;SDS011;34915;52.926;11.116;2022-07-22T01:13:39;4.73;;;4.20;;
49103;SDS011;34915;52.926;11.116;2022-07-22T01:16:06;5.10;;;4.67;;
49103;SDS011;34915;52.926;11.116;2022-07-22T01:18:33;7.07;;;4.83;;
49103;SDS011;34915;52.926;11.116;2022-07-22T01:20:59;5.17;;;4.67;;
49103;SDS011;34915;52.926;11.116;2022-07-22T01:23:26;4.37;;;3.97;;
49103;SDS011;34915;52.926;11.116;2022-07-22T01:25:52;5.47;;;4.37;;
49103;SDS011;34915;52.926;11.116;2022-07-22T01:28:18;4.63;;;4.23;;
49103;SDS011;34915;52.926;11.116;2022-07-22T01:30:44;5.03;;;4.63;;
49103;SDS011;34915;52.926;11.116;2022-07-22T01:33:10;4.63;;;4.27;;
49103;SDS011;34915;52.926;11.116;2022-07-22T01:35:35;5.63;;;4.40;;
49103;SDS011;34915;52.926;11.116;2022-07-22T01:38:01;4.57;;;4.13;;
49103;SDS011;34915;52.926;11.116;2022-07-22T01:40:27;5.20;;;4.00;;
49103;SDS011;34915;52.926;11.116;2022-07-22T01:42:52;4.83;;;4.33;;
49103;SDS011;34915;52.926;11.116;2022-07-22T01:45:18;6.90;;;4.70;;
49103;SDS011;34915;52.926;11.116;2022-07-22T01:47:43;5.17;;;4.53;;
49103;SDS011;34915;52.926;11.116;2022-07-22T01:50:10;5.00;;;4.43;;
49103;SDS011;34915;52.926;11.116;2022-07-22T01:52:37;5.57;;;4.87;;
49103;SDS011;34915;52.926;11.116;2022-07-22T01:55:04;4.87;;;4.43;;
49103;SDS011;34915;52.926;11.116;2022-07-22T01:57:31;5.50;;;4.87;;
49103;SDS011;34915;52.926;11.116;2022-07-22T01:59:57;6.37;;;4.83;;
49103;SDS011;34915;52.926;11.116;2022-07-22T02:02:22;5.67;;;5.17;;
49103;SDS011;34915;52.926;11.116;2022-07-22T02:04:48;5.43;;;4.87;;
49103;SDS011;34915;52.926;11.116;2022-07-22T02:07:13;5.63;;;4.37;;
49103;SDS011;34915;52.926;11.116;2022-07-22T02:09:39;4.50;;;4.10;;
49103;SDS011;34915;52.926;11.116;2022-07-22T02:12:05;6.87;;;4.30;;
49103;SDS011;34915;52.926;11.116;2022-07-22T02:14:31;5.17;;;4.67;;
49103;SDS011;34915;52.926;11.116;2022-07-22T02:16:56;5.70;;;4.70;;
49103;SDS011;34915;52.926;11.116;2022-07-22T02:19:24;6.30;;;4.73;;
49103;SDS011;34915;52.926;11.116;2022-07-22T02:21:50;5.13;;;4.50;;
49103;SDS011;34915;52.926;11.116;2022-07-22T02:24:15;7.03;;;4.60;;
49103;SDS011;34915;52.926;11.116;2022-07-22T02:26:41;5.23;;;4.70;;
49103;SDS011;34915;52.926;11.116;2022-07-22T02:29:06;5.60;;;5.00;;
49103;SDS011;34915;52.926;11.116;2022-07-22T02:31:32;6.17;;;5.00;;
49103;SDS011;34915;52.926;11.116;2022-07-22T02:33:58;5.93;;;5.00;;
49103;SDS011;34915;52.926;11.116;2022-07-22T02:36:24;5.20;;;4.70;;
49103;SDS011;34915;52.926;11.116;2022-07-22T02:38:49;5.73;;;4.20;;
49103;SDS011;34915;52.926;11.116;2022-07-22T02:41:15;6.20;;;5.10;;
49103;SDS011;34915;52.926;11.116;2022-07-22T02:43:40;4.67;;;4.27;;
49103;SDS011;34915;52.926;11.116;2022-07-22T02:46:06;6.40;;;4.93;;
49103;SDS011;34915;52.926;11.116;2022-07-22T02:48:31;5.40;;;4.90;;
49103;SDS011;34915;52.926;11.116;2022-07-22T02:50:58;5.43;;;4.97;;
49103;SDS011;34915;52.926;11.116;2022-07-22T02:53:24;5.63;;;5.13;;
49103;SDS011;34915;52.926;11.116;2022-07-22T02:55:49;6.53;;;5.80;;
49103;SDS011;34915;52.926;11.116;2022-07-22T02:58:15;5.43;;;5.00;;
49103;SDS011;34915;52.926;11.116;2022-07-22T03:00:41;6.53;;;5.90;;
49103;SDS011;34915;52.926;11.116;2022-07-22T03:03:09;6.60;;;5.57;;
49103;SDS011;34915;52.926;11.116;2022-07-22T03:05:35;7.40;;;5.70;;
49103;SDS011;34915;52.926;11.116;2022-07-22T03:08:01;5.97;;;5.37;;
49103;SDS011;34915;52.926;11.116;2022-07-22T03:10:27;6.47;;;5.87;;
49103;SDS011;34915;52.926;11.116;2022-07-22T03:12:53;5.67;;;5.17;;
49103;SDS011;34915;52.926;11.116;2022-07-22T03:15:19;5.43;;;5.03;;
49103;SDS011;34915;52.926;11.116;2022-07-22T03:17:44;5.77;;;5.20;;
49103;SDS011;34915;52.926;11.116;2022-07-22T03:20:10;7.43;;;5.63;;
49103;SDS011;34915;52.926;11.116;2022-07-22T03:22:36;7.10;;;6.37;;
49103;SDS011;34915;52.926;11.116;2022-07-22T03:25:02;6.97;;;6.37;;
49103;SDS011;34915;52.926;11.116;2022-07-22T03:27:28;6.77;;;6.10;;
49103;SDS011;34915;52.926;11.116;2022-07-22T03:29:54;7.07;;;6.37;;
49103;SDS011;34915;52.926;11.116;2022-07-22T03:32:20;6.73;;;6.13;;
49103;SDS011;34915;52.926;11.116;2022-07-22T03:34:45;7.93;;;7.23;;
49103;SDS011;34915;52.926;11.116;2022-07-22T03:37:11;8.67;;;7.50;;
49103;SDS011;34915;52.926;11.116;2022-07-22T03:39:37;7.50;;;6.80;;
49103;SDS011;34915;52.926;11.116;2022-07-22T03:42:03;10.77;;;7.80;;
49103;SDS011;34915;52.926;11.116;2022-07-22T03:44:29;8.10;;;6.93;;
49103;SDS011;34915;52.926;11.116;2022-07-22T03:46:55;7.10;;;6.40;;
49103;SDS011;34915;52.926;11.116;2022-07-22T03:49:20;7.97;;;7.17;;
49103;SDS011;34915;52.926;11.116;2022-07-22T03:51:46;7.77;;;6.97;;
49103;SDS011;34915;52.926;11.116;2022-07-22T03:54:11;7.93;;;7.13;;
49103;SDS011;34915;52.926;11.116;2022-07-22T03:56:37;9.17;;;7.60;;
49103;SDS011;34915;52.926;11.116;2022-07-22T03:59:03;9.00;;;7.77;;
49103;SDS011;34915;52.926;11.116;2022-07-22T04:01:28;8.73;;;7.93;;
49103;SDS011;34915;52.926;11.116;2022-07-22T04:03:54;9.30;;;7.67;;
49103;SDS011;34915;52.926;11.116;2022-07-22T04:06:23;9.50;;;8.10;;
49103;SDS011;34915;52.926;11.116;2022-07-22T04:08:48;6.07;;;5.47;;
49103;SDS011;34915;52.926;11.116;2022-07-22T04:11:14;4.63;;;4.13;;
49103;SDS011;34915;52.926;11.116;2022-07-22T04:13:42;4.43;;;4.00;;
49103;SDS011;34915;52.926;11.116;2022-07-22T04:16:07;3.80;;;3.37;;
49103;SDS011;34915;52.926;11.116;2022-07-22T04:18:33;3.70;;;3.30;;
49103;SDS011;34915;52.926;11.116;2022-07-22T04:21:00;4.83;;;3.03;;
49103;SDS011;34915;52.926;11.116;2022-07-22T04:23:28;3.53;;;2.97;;
49103;SDS011;34915;52.926;11.116;2022-07-22T04:25:54;3.97;;;2.00;;
49103;SDS011;34915;52.926;11.116;2022-07-22T04:28:19;2.17;;;1.87;;
49103;SDS011;34915;52.926;11.116;2022-07-22T04:30:46;1.93;;;1.50;;
49103;SDS011;34915;52.926;11.116;2022-07-22T04:33:11;1.63;;;1.53;;
49103;SDS011;34915;52.926;11.116;2022-07-22T04:35:37;1.20;;;1.20;;
49103;SDS011;34915;52.926;11.116;2022-07-22T04:38:03;1.77;;;1.20;;
49103;SDS011;34915;52.926;11.116;2022-07-22T04:40:29;1.40;;;1.30;;
49103;SDS011;34915;52.926;11.116;2022-07-22T04:42:54;2.77;;;1.20;;
49103;SDS011;34915;52.926;11.116;2022-07-22T04:45:20;1.07;;;1.07;;
49103;SDS011;34915;52.926;11.116;2022-07-22T04:47:46;1.90;;;1.10;;
49103;SDS011;34915;52.926;11.116;2022-07-22T04:50:11;1.40;;;1.10;;
49103;SDS011;34915;52.926;11.116;2022-07-22T04:52:37;1.07;;;1.07;;
49103;SDS011;34915;52.926;11.116;2022-07-22T04:55:02;3.93;;;1.50;;
49103;SDS011;34915;52.926;11.116;2022-07-22T04:57:28;1.10;;;1.10;;
49103;SDS011;34915;52.926;11.116;2022-07-22T04:59:54;2.27;;;1.63;;
49103;SDS011;34915;52.926;11.116;2022-07-22T05:02:19;1.80;;;1.70;;
49103;SDS011;34915;52.926;11.116;2022-07-22T05:04:45;2.30;;;2.10;;
49103;SDS011;34915;52.926;11.116;2022-07-22T05:07:11;2.83;;;2.27;;
49103;SDS011;34915;52.926;11.116;2022-07-22T05:09:37;3.43;;;2.10;;
49103;SDS011;34915;52.926;11.116;2022-07-22T05:12:03;2.80;;;2.53;;
49103;SDS011;34915;52.926;11.116;2022-07-22T05:14:28;2.97;;;2.47;;
49103;SDS011;34915;52.926;11.116;2022-07-22T05:16:54;2.87;;;2.57;;
49103;SDS011;34915;52.926;11.116;2022-07-22T05:19:19;2.63;;;2.43;;
49103;SDS011;34915;52.926;11.116;2022-07-22T05:21:47;4.00;;;2.90;;
49103;SDS011;34915;52.926;11.116;2022-07-22T05:24:13;2.87;;;2.50;;
49103;SDS011;34915;52.926;11.116;2022-07-22T05:26:38;5.00;;;2.93;;
49103;SDS011;34915;52.926;11.116;2022-07-22T05:29:04;4.50;;;2.83;;
49103;SDS011;34915;52.926;11.116;2022-07-22T05:31:29;5.87;;;3.00;;
49103;SDS011;34915;52.926;11.116;2022-07-22T05:33:55;3.03;;;2.70;;
49103;SDS011;34915;52.926;11.116;2022-07-22T05:36:21;3.57;;;2.77;;
49103;SDS011;34915;52.926;11.116;2022-07-22T05:38:46;3.23;;;2.50;;
49103;SDS011;34915;52.926;11.116;2022-07-22T05:41:12;2.83;;;2.53;;
49103;SDS011;34915;52.926;11.116;2022-07-22T05:43:38;3.03;;;2.10;;
49103;SDS011;34915;52.926;11.116;2022-07-22T05:46:03;4.50;;;2.30;;
49103;SDS011;34915;52.926;11.116;2022-07-22T05:48:29;3.40;;;2.40;;
49103;SDS011;34915;52.926;11.116;2022-07-22T05:50:55;2.80;;;2.20;;
49103;SDS011;34915;52.926;11.116;2022-07-22T05:53:20;4.77;;;1.83;;
49103;SDS011;34915;52.926;11.116;2022-07-22T05:55:46;2.53;;;2.00;;
49103;SDS011;34915;52.926;11.116;2022-07-22T05:58:12;2.10;;;1.77;;
49103;SDS011;34915;52.926;11.116;2022-07-22T06:00:37;3.43;;;1.60;;
49103;SDS011;34915;52.926;11.116;2022-07-22T06:03:04;1.43;;;1.33;;
49103;SDS011;34915;52.926;11.116;2022-07-22T06:05:30;1.73;;;1.20;;
49103;SDS011;34915;52.926;11.116;2022-07-22T06:07:56;1.57;;;1.40;;
49103;SDS011;34915;52.926;11.116;2022-07-22T06:10:22;1.53;;;1.20;;
49103;SDS011;34915;52.926;11.116;2022-07-22T06:12:47;1.97;;;1.00;;
49103;SDS011;34915;52.926;11.116;2022-07-22T06:15:13;1.07;;;1.07;;
49103;SDS011;34915;52.926;11.116;2022-07-22T06:17:38;2.20;;;1.10;;
49103;SDS011;34915;52.926;11.116;2022-07-22T06:20:04;2.23;;;1.30;;
49103;SDS011;34915;52.926;11.116;2022-07-22T06:22:31;1.30;;;1.10;;
49103;SDS011;34915;52.926;11.116;2022-07-22T06:24:56;1.50;;;1.40;;
49103;SDS011;34915;52.926;11.116;2022-07-22T06:27:22;1.50;;;1.40;;
49103;SDS011;34915;52.926;11.116;2022-07-22T06:29:50;1.80;;;1.27;;
49103;SDS011;34915;52.926;11.116;2022-07-22T06:32:15;3.97;;;1.40;;
49103;SDS011;34915;52.926;11.116;2022-07-22T06:34:41;1.57;;;1.40;;
49103;SDS011;34915;52.926;11.116;2022-07-22T06:37:09;1.97;;;1.87;;
49103;SDS011;34915;52.926;11.116;2022-07-22T06:39:35;1.87;;;1.67;;
49103;SDS011;34915;52.926;11.116;2022-07-22T06:42:01;3.30;;;1.87;;
49103;SDS011;34915;52.926;11.116;2022-07-22T06:44:26;3.13;;;1.67;;
49103;SDS011;34915;52.926;11.116;2022-07-22T06:46:52;2.20;;;2.10;;
49103;SDS011;34915;52.926;11.116;2022-07-22T06:49:17;2.37;;;1.60;;
49103;SDS011;34915;52.926;11.116;2022-07-22T06:51:43;1.60;;;1.50;;
49103;SDS011;34915;52.926;11.116;2022-07-22T06:54:08;5.60;;;1.90;;
49103;SDS011;34915;52.926;11.116;2022-07-22T06:56:34;2.17;;;1.77;;
49103;SDS011;34915;52.926;11.116;2022-07-22T06:58:59;2.20;;;1.90;;
49103;SDS011;34915;52.926;11.116;2022-07-22T07:01:25;2.03;;;1.60;;
49103;SDS011;34915;52.926;11.116;2022-07-22T07:03:50;4.77;;;2.00;;
49103;SDS011;34915;52.926;11.116;2022-07-22T07:06:16;3.00;;;1.53;;
49103;SDS011;34915;52.926;11.116;2022-07-22T07:08:42;4.03;;;1.87;;
49103;SDS011;34915;52.926;11.116;2022-07-22T07:11:07;3.07;;;1.80;;
49103;SDS011;34915;52.926;11.116;2022-07-22T07:13:33;1.77;;;1.57;;
49103;SDS011;34915;52.926;11.116;2022-07-22T07:15:59;1.47;;;1.37;;
49103;SDS011;34915;52.926;11.116;2022-07-22T07:18:25;2.87;;;1.50;;
49103;SDS011;34915;52.926;11.116;2022-07-22T07:20:50;5.07;;;2.07;;
49103;SDS011;34915;52.926;11.116;2022-07-22T07:23:16;2.57;;;1.53;;
49103;SDS011;34915;52.926;11.116;2022-07-22T07:25:42;1.83;;;1.30;;
49103;SDS011;34915;52.926;11.116;2022-07-22T07:28:07;3.63;;;1.87;;
49103;SDS011;34915;52.926;11.116;2022-07-22T07:30:33;3.97;;;1.87;;
49103;SDS011;34915;52.926;11.116;2022-07-22T07:32:59;2.40;;;1.40;;
49103;SDS011;34915;52.926;11.116;2022-07-22T07:35:27;3.47;;;1.87;;
49103;SDS011;34915;52.926;11.116;2022-07-22T07:37:53;2.07;;;1.40;;
49103;SDS011;34915;52.926;11.116;2022-07-22T07:40:19;2.13;;;1.77;;
49103;SDS011;34915;52.926;11.116;2022-07-22T07:42:45;4.67;;;3.10;;
49103;SDS011;34915;52.926;11.116;2022-07-22T07:45:10;2.53;;;2.27;;
49103;SDS011;34915;52.926;11.116;2022-07-22T07:47:36;2.77;;;1.77;;
49103;SDS011;34915;52.926;11.116;2022-07-22T07:50:03;2.40;;;1.37;;
49103;SDS011;34915;52.926;11.116;2022-07-22T07:52:30;2.20;;;1.40;;
49103;SDS011;34915;52.926;11.116;2022-07-22T07:54:55;2.37;;;1.63;;
49103;SDS011;34915;52.926;11.116;2022-07-22T07:57:21;1.87;;;1.33;;
49103;SDS011;34915;52.926;11.116;2022-07-22T07:59:47;3.30;;;1.30;;
49103;SDS011;34915;52.926;11.116;2022-07-22T08:02:12;2.50;;;1.90;;
49103;SDS011;34915;52.926;11.116;2022-07-22T08:04:38;12.93;;;8.77;;
49103;SDS011;34915;52.926;11.116;2022-07-22T08:07:04;4.23;;;2.77;;
49103;SDS011;34915;52.926;11.116;2022-07-22T08:09:32;5.90;;;4.30;;
49103;SDS011;34915;52.926;11.116;2022-07-22T08:12:00;6.47;;;5.43;;
49103;SDS011;34915;52.926;11.116;2022-07-22T08:14:26;1.93;;;1.77;;
49103;SDS011;34915;52.926;11.116;2022-07-22T08:16:51;1.93;;;1.30;;
49103;SDS011;34915;52.926;11.116;2022-07-22T08:19:17;2.63;;;1.63;;
49103;SDS011;34915;52.926;11.116;2022-07-22T08:21:43;1.40;;;1.30;;
49103;SDS011;34915;52.926;11.116;2022-07-22T08:24:09;4.00;;;1.70;;
49103;SDS011;34915;52.926;11.116;2022-07-22T08:26:35;2.13;;;1.43;;
49103;SDS011;34915;52.926;11.116;2022-07-22T08:29:03;1.17;;;1.07;;
49103;SDS011;34915;52.926;11.116;2022-07-22T08:31:29;1.63;;;1.20;;
49103;SDS011;34915;52.926;11.116;2022-07-22T08:34:00;2.00;;;1.20;;
49103;SDS011;34915;52.926;11.116;2022-07-22T08:36:26;2.40;;;1.27;;
49103;SDS011;34915;52.926;11.116;2022-07-22T08:38:53;2.17;;;1.13;;
49103;SDS011;34915;52.926;11.116;2022-07-22T08:41:18;1.60;;;1.10;;
49103;SDS011;34915;52.926;11.116;2022-07-22T08:43:46;1.10;;;1.00;;
49103;SDS011;34915;52.926;11.116;2022-07-22T08:46:12;2.30;;;1.40;;
49103;SDS011;34915;52.926;11.116;2022-07-22T08:48:38;3.87;;;1.10;;
49103;SDS011;34915;52.926;11.116;2022-07-22T08:51:04;2.50;;;1.27;;
49103;SDS011;34915;52.926;11.116;2022-07-22T08:53:30;2.63;;;1.53;;
49103;SDS011;34915;52.926;11.116;2022-07-22T08:55:55;2.10;;;1.30;;
49103;SDS011;34915;52.926;11.116;2022-07-22T08:58:21;1.30;;;1.20;;
49103;SDS011;34915;52.926;11.116;2022-07-22T09:00:49;3.07;;;1.37;;
49103;SDS011;34915;52.926;11.116;2022-07-22T09:03:32;2.67;;;1.33;;
49103;SDS011;34915;52.926;11.116;2022-07-22T09:05:57;1.90;;;1.20;;
49103;SDS011;34915;52.926;11.116;2022-07-22T09:08:24;2.10;;;1.00;;
49103;SDS011;34915;52.926;11.116;2022-07-22T09:10:50;1.03;;;0.80;;
49103;SDS011;34915;52.926;11.116;2022-07-22T09:13:16;1.33;;;0.80;;
49103;SDS011;34915;52.926;11.116;2022-07-22T09:15:48;1.43;;;0.90;;
49103;SDS011;34915;52.926;11.116;2022-07-22T09:18:18;2.73;;;1.10;;
49103;SDS011;34915;52.926;11.116;2022-07-22T09:20:44;1.17;;;1.07;;
49103;SDS011;34915;52.926;11.116;2022-07-22T09:25:38;4.47;;;2.70;;
49103;SDS011;34915;52.926;11.116;2022-07-22T09:30:30;5.37;;;2.43;;
49103;SDS011;34915;52.926;11.116;2022-07-22T09:32:56;6.97;;;4.67;;
49103;SDS011;34915;52.926;11.116;2022-07-22T09:35:22;4.43;;;1.90;;
49103;SDS011;34915;52.926;11.116;2022-07-22T09:40:16;6.93;;;2.33;;
49103;SDS011;34915;52.926;11.116;2022-07-22T09:42:51;2.43;;;2.00;;
49103;SDS011;34915;52.926;11.116;2022-07-22T09:45:18;4.30;;;2.00;;
49103;SDS011;34915;52.926;11.116;2022-07-22T09:47:45;3.97;;;1.77;;
49103;SDS011;34915;52.926;11.116;2022-07-22T09:50:19;4.63;;;2.00;;
49103;SDS011;34915;52.926;11.116;2022-07-22T09:52:44;2.67;;;2.00;;
49103;SDS011;34915;52.926;11.116;2022-07-22T09:55:12;5.77;;;2.43;;
49103;SDS011;34915;52.926;11.116;2022-07-22T09:57:39;6.27;;;2.93;;
49103;SDS011;34915;52.926;11.116;2022-07-22T10:00:05;7.20;;;4.30;;
49103;SDS011;34915;52.926;11.116;2022-07-22T10:02:34;7.50;;;3.97;;
49103;SDS011;34915;52.926;11.116;2022-07-22T10:05:05;5.27;;;2.40;;
49103;SDS011;34915;52.926;11.116;2022-07-22T10:07:34;2.67;;;1.90;;
49103;SDS011;34915;52.926;11.116;2022-07-22T10:10:01;4.20;;;1.97;;
49103;SDS011;34915;52.926;11.116;2022-07-22T10:12:28;3.93;;;2.03;;
49103;SDS011;34915;52.926;11.116;2022-07-22T10:14:55;5.17;;;2.03;;
49103;SDS011;34915;52.926;11.116;2022-07-22T10:17:21;4.37;;;2.43;;
49103;SDS011;34915;52.926;11.116;2022-07-22T10:19:47;4.93;;;2.37;;
49103;SDS011;34915;52.926;11.116;2022-07-22T10:25:04;5.83;;;2.20;;
49103;SDS011;34915;52.926;11.116;2022-07-22T10:30:44;6.67;;;2.37;;
49103;SDS011;34915;52.926;11.116;2022-07-22T10:33:11;6.83;;;3.07;;
49103;SDS011;34915;52.926;11.116;2022-07-22T10:38:10;8.33;;;5.23;;
49103;SDS011;34915;52.926;11.116;2022-07-22T10:40:45;8.90;;;3.13;;
49103;SDS011;34915;52.926;11.116;2022-07-22T10:43:27;6.23;;;2.57;;
49103;SDS011;34915;52.926;11.116;2022-07-22T10:46:13;4.83;;;2.60;;
49103;SDS011;34915;52.926;11.116;2022-07-22T10:53:40;5.77;;;2.20;;
49103;SDS011;34915;52.926;11.116;2022-07-22T10:58:47;5.57;;;2.83;;
49103;SDS011;34915;52.926;11.116;2022-07-22T11:01:16;5.50;;;2.70;;
49103;SDS011;34915;52.926;11.116;2022-07-22T11:03:44;4.00;;;2.50;;
49103;SDS011;34915;52.926;11.116;2022-07-22T11:06:15;6.70;;;3.10;;
49103;SDS011;34915;52.926;11.116;2022-07-22T11:08:44;7.10;;;3.00;;
49103;SDS011;34915;52.926;11.116;2022-07-22T11:11:11;4.73;;;2.60;;
49103;SDS011;34915;52.926;11.116;2022-07-22T11:13:40;4.70;;;2.40;;
49103;SDS011;34915;52.926;11.116;2022-07-22T11:16:40;3.80;;;2.40;;
49103;SDS011;34915;52.926;11.116;2022-07-22T11:18:59;6.20;;;2.17;;
49103;SDS011;34915;52.926;11.116;2022-07-22T11:21:30;3.83;;;2.30;;
49103;SDS011;34915;52.926;11.116;2022-07-22T11:23:57;10.53;;;2.60;;
49103;SDS011;34915;52.926;11.116;2022-07-22T11:26:34;6.10;;;2.10;;
49103;SDS011;34915;52.926;11.116;2022-07-22T11:29:04;8.70;;;2.20;;
49103;SDS011;34915;52.926;11.116;2022-07-22T11:31:29;6.93;;;2.70;;
49103;SDS011;34915;52.926;11.116;2022-07-22T11:34:14;8.40;;;2.80;;
49103;SDS011;34915;52.926;11.116;2022-07-22T11:36:42;6.60;;;2.27;;
49103;SDS011;34915;52.926;11.116;2022-07-22T11:39:12;6.03;;;2.70;;
49103;SDS011;34915;52.926;11.116;2022-07-22T11:41:39;5.17;;;2.27;;
49103;SDS011;34915;52.926;11.116;2022-07-22T11:44:05;3.73;;;2.10;;
49103;SDS011;34915;52.926;11.116;2022-07-22T11:46:39;4.17;;;2.50;;
49103;SDS011;34915;52.926;11.116;2022-07-22T11:49:06;5.93;;;2.20;;
49103;SDS011;34915;52.926;11.116;2022-07-22T11:51:34;5.07;;;2.50;;
49103;SDS011;34915;52.926;11.116;2022-07-22T11:54:03;4.97;;;2.10;;
49103;SDS011;34915;52.926;11.116;2022-07-22T11:56:29;4.63;;;2.37;;
49103;SDS011;34915;52.926;11.116;2022-07-22T11:58:55;7.07;;;2.13;;
49103;SDS011;34915;52.926;11.116;2022-07-22T12:01:25;5.87;;;2.10;;
49103;SDS011;34915;52.926;11.116;2022-07-22T12:04:02;4.43;;;2.50;;
49103;SDS011;34915;52.926;11.116;2022-07-22T12:06:33;4.43;;;2.10;;
49103;SDS011;34915;52.926;11.116;2022-07-22T12:11:33;4.63;;;2.50;;
49103;SDS011;34915;52.926;11.116;2022-07-22T12:14:07;4.67;;;2.50;;
49103;SDS011;34915;52.926;11.116;2022-07-22T12:16:33;4.60;;;2.20;;
49103;SDS011;34915;52.926;11.116;2022-07-22T12:19:00;3.93;;;1.80;;
49103;SDS011;34915;52.926;11.116;2022-07-22T12:21:29;5.40;;;2.30;;
49103;SDS011;34915;52.926;11.116;2022-07-22T12:24:00;4.03;;;1.97;;
49103;SDS011;34915;52.926;11.116;2022-07-22T12:29:12;4.20;;;2.33;;
49103;SDS011;34915;52.926;11.116;2022-07-22T12:31:42;2.10;;;1.70;;
49103;SDS011;34915;52.926;11.116;2022-07-22T12:34:09;4.43;;;1.83;;
49103;SDS011;34915;52.926;11.116;2022-07-22T12:36:34;4.23;;;2.30;;
49103;SDS011;34915;52.926;11.116;2022-07-22T12:39:17;5.93;;;1.97;;
49103;SDS011;34915;52.926;11.116;2022-07-22T12:41:51;3.37;;;2.20;;
49103;SDS011;34915;52.926;11.116;2022-07-22T12:44:25;5.27;;;2.33;;
49103;SDS011;34915;52.926;11.116;2022-07-22T12:46:55;5.63;;;2.00;;
49103;SDS011;34915;52.926;11.116;2022-07-22T12:49:22;2.50;;;2.30;;
49103;SDS011;34915;52.926;11.116;2022-07-22T12:52:08;5.87;;;2.10;;
49103;SDS011;34915;52.926;11.116;2022-07-22T12:54:39;3.87;;;2.00;;
49103;SDS011;34915;52.926;11.116;2022-07-22T12:57:06;7.00;;;2.17;;
49103;SDS011;34915;52.926;11.116;2022-07-22T12:59:34;5.10;;;2.20;;
49103;SDS011;34915;52.926;11.116;2022-07-22T13:02:01;9.77;;;2.20;;
49103;SDS011;34915;52.926;11.116;2022-07-22T13:04:27;3.13;;;2.13;;
49103;SDS011;34915;52.926;11.116;2022-07-22T13:06:53;3.20;;;2.03;;
49103;SDS011;34915;52.926;11.116;2022-07-22T13:09:19;3.57;;;2.50;;
49103;SDS011;34915;52.926;11.116;2022-07-22T13:11:44;3.40;;;2.30;;
49103;SDS011;34915;52.926;11.116;2022-07-22T13:14:11;6.10;;;2.37;;
49103;SDS011;34915;52.926;11.116;2022-07-22T13:16:38;5.57;;;2.13;;
49103;SDS011;34915;52.926;11.116;2022-07-22T13:19:07;6.40;;;3.00;;
49103;SDS011;34915;52.926;11.116;2022-07-22T13:21:32;2.93;;;1.90;;
49103;SDS011;34915;52.926;11.116;2022-07-22T13:23:58;7.70;;;2.20;;
49103;SDS011;34915;52.926;11.116;2022-07-22T13:26:23;3.40;;;2.50;;
49103;SDS011;34915;52.926;11.116;2022-07-22T13:28:51;6.83;;;2.73;;
49103;SDS011;34915;52.926;11.116;2022-07-22T13:31:16;3.17;;;2.73;;
49103;SDS011;34915;52.926;11.116;2022-07-22T13:33:42;3.93;;;2.30;;
49103;SDS011;34915;52.926;11.116;2022-07-22T13:36:08;8.53;;;3.03;;
49103;SDS011;34915;52.926;11.116;2022-07-22T13:38:34;6.67;;;2.27;;
49103;SDS011;34915;52.926;11.116;2022-07-22T13:40:59;3.00;;;2.40;;
49103;SDS011;34915;52.926;11.116;2022-07-22T13:43:25;4.07;;;2.43;;
49103;SDS011;34915;52.926;11.116;2022-07-22T13:45:52;3.77;;;2.00;;
49103;SDS011;34915;52.926;11.116;2022-07-22T13:48:18;3.77;;;2.47;;
49103;SDS011;34915;52.926;11.116;2022-07-22T13:50:46;4.97;;;2.00;;
49103;SDS011;34915;52.926;11.116;2022-07-22T13:53:12;5.63;;;1.83;;
49103;SDS011;34915;52.926;11.116;2022-07-22T13:55:38;4.90;;;2.23;;
49103;SDS011;34915;52.926;11.116;2022-07-22T13:58:06;4.07;;;2.03;;
49103;SDS011;34915;52.926;11.116;2022-07-22T14:00:32;4.70;;;2.40;;
49103;SDS011;34915;52.926;11.116;2022-07-22T14:02:58;2.90;;;2.13;;
49103;SDS011;34915;52.926;11.116;2022-07-22T14:05:24;4.43;;;2.20;;
49103;SDS011;34915;52.926;11.116;2022-07-22T14:07:50;4.20;;;2.47;;
49103;SDS011;34915;52.926;11.116;2022-07-22T14:10:16;3.47;;;1.97;;
49103;SDS011;34915;52.926;11.116;2022-07-22T14:12:42;3.73;;;2.17;;
49103;SDS011;34915;52.926;11.116;2022-07-22T14:15:08;3.10;;;2.23;;
49103;SDS011;34915;52.926;11.116;2022-07-22T14:17:35;3.53;;;2.40;;
49103;SDS011;34915;52.926;11.116;2022-07-22T14:20:00;2.53;;;2.20;;
49103;SDS011;34915;52.926;11.116;2022-07-22T14:22:27;4.37;;;2.47;;
49103;SDS011;34915;52.926;11.116;2022-07-22T14:24:53;4.93;;;2.50;;
49103;SDS011;34915;52.926;11.116;2022-07-22T14:27:19;4.33;;;2.60;;
49103;SDS011;34915;52.926;11.116;2022-07-22T14:29:44;4.20;;;2.37;;
49103;SDS011;34915;52.926;11.116;2022-07-22T14:32:10;3.47;;;2.40;;
49103;SDS011;34915;52.926;11.116;2022-07-22T14:34:35;5.47;;;2.70;;
49103;SDS011;34915;52.926;11.116;2022-07-22T14:37:01;3.07;;;2.20;;
49103;SDS011;34915;52.926;11.116;2022-07-22T14:39:26;2.77;;;2.23;;
49103;SDS011;34915;52.926;11.116;2022-07-22T14:41:52;3.23;;;2.47;;
49103;SDS011;34915;52.926;11.116;2022-07-22T14:44:18;4.57;;;2.13;;
49103;SDS011;34915;52.926;11.116;2022-07-22T14:46:43;4.30;;;2.83;;
49103;SDS011;34915;52.926;11.116;2022-07-22T14:49:09;6.63;;;2.73;;
49103;SDS011;34915;52.926;11.116;2022-07-22T14:51:34;6.17;;;2.80;;
49103;SDS011;34915;52.926;11.116;2022-07-22T14:54:00;2.80;;;2.23;;
49103;SDS011;34915;52.926;11.116;2022-07-22T14:56:25;4.97;;;2.70;;
49103;SDS011;34915;52.926;11.116;2022-07-22T14:58:51;3.97;;;2.60;;
49103;SDS011;34915;52.926;11.116;2022-07-22T15:01:16;5.67;;;2.60;;
49103;SDS011;34915;52.926;11.116;2022-07-22T15:03:42;5.03;;;2.47;;
49103;SDS011;34915;52.926;11.116;2022-07-22T15:06:08;6.50;;;2.63;;
49103;SDS011;34915;52.926;11.116;2022-07-22T15:08:34;5.37;;;2.73;;